sensor_id;sensor_type;location;lat;lon;timestamp;P1;durP1;ratioP1;P2;durP2;ratioP2
83630;SDS011;73593;52.134;5.426;2024-03-17T00:01:03;10.45;;;4.18;;
83630;SDS011;73593;52.134;5.426;2024-03-17T00:03:29;9.02;;;3.83;;
83630;SDS011;73593;52.134;5.426;2024-03-17T00:06:01;15.80;;;4.75;;
83630;SDS011;73593;52.134;5.426;2024-03-17T00:08:27;11.43;;;4.60;;
83630;SDS011;73593;52.134;5.426;2024-03-17T00:10:54;10.77;;;5.07;;
83630;SDS011;73593;52.134;5.426;2024-03-17T00:13:20;11.13;;;5.05;;
83630;SDS011;73593;52.134;5.426;2024-03-17T00:15:47;9.88;;;4.47;;
83630;SDS011;73593;52.134;5.426;2024-03-17T00:18:16;10.27;;;4.43;;
83630;SDS011;73593;52.134;5.426;2024-03-17T00:20:45;12.18;;;5.03;;
83630;SDS011;73593;52.134;5.426;2024-03-17T00:25:37;10.60;;;4.63;;
83630;SDS011;73593;52.134;5.426;2024-03-17T00:28:04;10.82;;;4.88;;
83630;SDS011;73593;52.134;5.426;2024-03-17T00:30:32;13.30;;;4.50;;
83630;SDS011;73593;52.134;5.426;2024-03-17T00:32:58;11.15;;;4.68;;
83630;SDS011;73593;52.134;5.426;2024-03-17T00:35:25;10.90;;;4.38;;
83630;SDS011;73593;52.134;5.426;2024-03-17T00:37:55;12.80;;;5.10;;
83630;SDS011;73593;52.134;5.426;2024-03-17T00:40:20;10.80;;;4.32;;
83630;SDS011;73593;52.134;5.426;2024-03-17T00:42:46;13.70;;;4.60;;
83630;SDS011;73593;52.134;5.426;2024-03-17T00:45:14;9.10;;;4.10;;
83630;SDS011;73593;52.134;5.426;2024-03-17T00:47:43;10.80;;;4.57;;
83630;SDS011;73593;52.134;5.426;2024-03-17T00:50:09;10.30;;;4.82;;
83630;SDS011;73593;52.134;5.426;2024-03-17T00:52:37;9.93;;;4.35;;
83630;SDS011;73593;52.134;5.426;2024-03-17T00:55:02;12.25;;;5.00;;
83630;SDS011;73593;52.134;5.426;2024-03-17T00:57:28;16.98;;;5.78;;
83630;SDS011;73593;52.134;5.426;2024-03-17T00:59:57;15.20;;;5.65;;
83630;SDS011;73593;52.134;5.426;2024-03-17T01:02:25;14.15;;;4.97;;
83630;SDS011;73593;52.134;5.426;2024-03-17T01:04:51;11.70;;;5.20;;
83630;SDS011;73593;52.134;5.426;2024-03-17T01:07:16;10.00;;;4.93;;
83630;SDS011;73593;52.134;5.426;2024-03-17T01:09:46;11.10;;;4.45;;
83630;SDS011;73593;52.134;5.426;2024-03-17T01:12:13;14.02;;;4.90;;
83630;SDS011;73593;52.134;5.426;2024-03-17T01:14:41;12.18;;;4.95;;
83630;SDS011;73593;52.134;5.426;2024-03-17T01:17:07;9.93;;;4.40;;
83630;SDS011;73593;52.134;5.426;2024-03-17T01:19:35;11.32;;;4.32;;
83630;SDS011;73593;52.134;5.426;2024-03-17T01:22:01;19.80;;;8.88;;
83630;SDS011;73593;52.134;5.426;2024-03-17T01:24:27;23.90;;;10.82;;
83630;SDS011;73593;52.134;5.426;2024-03-17T01:26:57;15.18;;;7.70;;
83630;SDS011;73593;52.134;5.426;2024-03-17T01:29:24;13.40;;;5.55;;
83630;SDS011;73593;52.134;5.426;2024-03-17T01:31:53;10.98;;;5.65;;
83630;SDS011;73593;52.134;5.426;2024-03-17T01:34:21;9.77;;;4.72;;
83630;SDS011;73593;52.134;5.426;2024-03-17T01:39:16;9.57;;;4.10;;
83630;SDS011;73593;52.134;5.426;2024-03-17T01:41:43;13.55;;;5.28;;
83630;SDS011;73593;52.134;5.426;2024-03-17T01:44:21;9.68;;;4.47;;
83630;SDS011;73593;52.134;5.426;2024-03-17T01:46:51;9.20;;;4.50;;
83630;SDS011;73593;52.134;5.426;2024-03-17T01:49:18;9.95;;;3.92;;
83630;SDS011;73593;52.134;5.426;2024-03-17T01:51:46;10.80;;;4.07;;
83630;SDS011;73593;52.134;5.426;2024-03-17T01:54:16;11.27;;;5.20;;
83630;SDS011;73593;52.134;5.426;2024-03-17T01:56:42;11.63;;;4.50;;
83630;SDS011;73593;52.134;5.426;2024-03-17T01:59:10;11.85;;;4.50;;
83630;SDS011;73593;52.134;5.426;2024-03-17T02:01:39;7.95;;;4.45;;
83630;SDS011;73593;52.134;5.426;2024-03-17T02:04:08;13.43;;;5.45;;
83630;SDS011;73593;52.134;5.426;2024-03-17T02:06:34;10.43;;;4.10;;
83630;SDS011;73593;52.134;5.426;2024-03-17T02:09:00;11.07;;;4.68;;
83630;SDS011;73593;52.134;5.426;2024-03-17T02:11:27;11.00;;;4.55;;
83630;SDS011;73593;52.134;5.426;2024-03-17T02:13:54;13.00;;;4.97;;
83630;SDS011;73593;52.134;5.426;2024-03-17T02:16:24;11.18;;;5.05;;
83630;SDS011;73593;52.134;5.426;2024-03-17T02:18:56;10.07;;;4.18;;
83630;SDS011;73593;52.134;5.426;2024-03-17T02:21:27;11.07;;;4.70;;
83630;SDS011;73593;52.134;5.426;2024-03-17T02:23:54;13.25;;;5.10;;
83630;SDS011;73593;52.134;5.426;2024-03-17T02:26:19;12.23;;;4.72;;
83630;SDS011;73593;52.134;5.426;2024-03-17T02:28:46;10.48;;;4.82;;
83630;SDS011;73593;52.134;5.426;2024-03-17T02:31:14;13.55;;;5.18;;
83630;SDS011;73593;52.134;5.426;2024-03-17T02:33:41;13.95;;;5.88;;
83630;SDS011;73593;52.134;5.426;2024-03-17T02:36:13;11.27;;;4.78;;
83630;SDS011;73593;52.134;5.426;2024-03-17T02:38:43;14.15;;;4.93;;
83630;SDS011;73593;52.134;5.426;2024-03-17T02:41:44;13.18;;;5.25;;
83630;SDS011;73593;52.134;5.426;2024-03-17T02:44:15;14.73;;;5.95;;
83630;SDS011;73593;52.134;5.426;2024-03-17T02:46:41;10.80;;;5.10;;
83630;SDS011;73593;52.134;5.426;2024-03-17T02:51:39;10.35;;;4.60;;
83630;SDS011;73593;52.134;5.426;2024-03-17T02:54:05;11.65;;;4.72;;
83630;SDS011;73593;52.134;5.426;2024-03-17T02:58:58;15.60;;;4.97;;
83630;SDS011;73593;52.134;5.426;2024-03-17T03:01:24;8.82;;;4.57;;
83630;SDS011;73593;52.134;5.426;2024-03-17T03:03:55;11.43;;;5.20;;
83630;SDS011;73593;52.134;5.426;2024-03-17T03:06:20;13.20;;;5.07;;
83630;SDS011;73593;52.134;5.426;2024-03-17T03:08:53;12.13;;;4.80;;
83630;SDS011;73593;52.134;5.426;2024-03-17T03:11:21;11.35;;;5.22;;
83630;SDS011;73593;52.134;5.426;2024-03-17T03:13:47;13.55;;;4.88;;
83630;SDS011;73593;52.134;5.426;2024-03-17T03:16:13;9.07;;;4.40;;
83630;SDS011;73593;52.134;5.426;2024-03-17T03:18:39;12.73;;;5.30;;
83630;SDS011;73593;52.134;5.426;2024-03-17T03:21:06;11.43;;;5.03;;
83630;SDS011;73593;52.134;5.426;2024-03-17T03:23:35;10.45;;;5.40;;
83630;SDS011;73593;52.134;5.426;2024-03-17T03:26:03;11.00;;;4.78;;
83630;SDS011;73593;52.134;5.426;2024-03-17T03:28:34;11.20;;;4.88;;
83630;SDS011;73593;52.134;5.426;2024-03-17T03:31:00;11.25;;;4.20;;
83630;SDS011;73593;52.134;5.426;2024-03-17T03:33:27;10.68;;;4.80;;
83630;SDS011;73593;52.134;5.426;2024-03-17T03:35:53;13.85;;;5.38;;
83630;SDS011;73593;52.134;5.426;2024-03-17T03:38:21;10.23;;;4.82;;
83630;SDS011;73593;52.134;5.426;2024-03-17T03:43:14;14.57;;;4.57;;
83630;SDS011;73593;52.134;5.426;2024-03-17T03:45:40;10.20;;;4.53;;
83630;SDS011;73593;52.134;5.426;2024-03-17T03:48:07;14.38;;;4.72;;
83630;SDS011;73593;52.134;5.426;2024-03-17T03:50:37;11.25;;;4.72;;
83630;SDS011;73593;52.134;5.426;2024-03-17T03:53:04;10.00;;;4.50;;
83630;SDS011;73593;52.134;5.426;2024-03-17T03:55:31;10.80;;;4.97;;
83630;SDS011;73593;52.134;5.426;2024-03-17T03:57:57;12.27;;;4.72;;
83630;SDS011;73593;52.134;5.426;2024-03-17T04:00:22;11.98;;;5.18;;
83630;SDS011;73593;52.134;5.426;2024-03-17T04:02:50;9.80;;;4.32;;
83630;SDS011;73593;52.134;5.426;2024-03-17T04:07:43;9.30;;;4.93;;
83630;SDS011;73593;52.134;5.426;2024-03-17T04:10:11;10.20;;;4.85;;
83630;SDS011;73593;52.134;5.426;2024-03-17T04:12:38;9.30;;;4.55;;
83630;SDS011;73593;52.134;5.426;2024-03-17T04:15:06;9.38;;;5.68;;
83630;SDS011;73593;52.134;5.426;2024-03-17T04:17:35;10.65;;;5.75;;
83630;SDS011;73593;52.134;5.426;2024-03-17T04:20:05;8.85;;;4.90;;
83630;SDS011;73593;52.134;5.426;2024-03-17T04:22:36;10.23;;;4.47;;
83630;SDS011;73593;52.134;5.426;2024-03-17T04:25:03;10.18;;;4.65;;
83630;SDS011;73593;52.134;5.426;2024-03-17T04:27:32;16.70;;;5.43;;
83630;SDS011;73593;52.134;5.426;2024-03-17T04:29:58;13.85;;;5.20;;
83630;SDS011;73593;52.134;5.426;2024-03-17T04:32:25;9.35;;;4.32;;
83630;SDS011;73593;52.134;5.426;2024-03-17T04:34:57;14.45;;;5.20;;
83630;SDS011;73593;52.134;5.426;2024-03-17T04:37:23;12.43;;;5.25;;
83630;SDS011;73593;52.134;5.426;2024-03-17T04:39:49;10.30;;;5.22;;
83630;SDS011;73593;52.134;5.426;2024-03-17T04:42:16;10.65;;;5.45;;
83630;SDS011;73593;52.134;5.426;2024-03-17T04:47:13;11.50;;;4.60;;
83630;SDS011;73593;52.134;5.426;2024-03-17T04:49:39;12.52;;;4.95;;
83630;SDS011;73593;52.134;5.426;2024-03-17T04:52:08;11.43;;;5.28;;
83630;SDS011;73593;52.134;5.426;2024-03-17T04:54:35;12.10;;;4.68;;
83630;SDS011;73593;52.134;5.426;2024-03-17T04:59:33;9.80;;;4.85;;
83630;SDS011;73593;52.134;5.426;2024-03-17T05:02:00;12.38;;;6.10;;
83630;SDS011;73593;52.134;5.426;2024-03-17T05:04:27;18.77;;;5.55;;
83630;SDS011;73593;52.134;5.426;2024-03-17T05:06:56;9.98;;;5.15;;
83630;SDS011;73593;52.134;5.426;2024-03-17T05:11:50;12.90;;;5.68;;
83630;SDS011;73593;52.134;5.426;2024-03-17T05:14:19;10.60;;;5.35;;
83630;SDS011;73593;52.134;5.426;2024-03-17T05:16:48;13.43;;;5.70;;
83630;SDS011;73593;52.134;5.426;2024-03-17T05:19:15;11.95;;;5.53;;
83630;SDS011;73593;52.134;5.426;2024-03-17T05:21:45;15.18;;;5.80;;
83630;SDS011;73593;52.134;5.426;2024-03-17T05:26:40;13.43;;;4.85;;
83630;SDS011;73593;52.134;5.426;2024-03-17T05:29:10;11.93;;;5.28;;
83630;SDS011;73593;52.134;5.426;2024-03-17T05:31:36;13.55;;;5.80;;
83630;SDS011;73593;52.134;5.426;2024-03-17T05:34:07;13.13;;;5.40;;
83630;SDS011;73593;52.134;5.426;2024-03-17T05:36:33;13.32;;;6.75;;
83630;SDS011;73593;52.134;5.426;2024-03-17T05:39:02;15.90;;;5.78;;
83630;SDS011;73593;52.134;5.426;2024-03-17T05:41:28;12.55;;;6.10;;
83630;SDS011;73593;52.134;5.426;2024-03-17T05:43:54;13.48;;;6.00;;
83630;SDS011;73593;52.134;5.426;2024-03-17T05:46:24;14.13;;;5.32;;
83630;SDS011;73593;52.134;5.426;2024-03-17T05:48:53;15.43;;;6.20;;
83630;SDS011;73593;52.134;5.426;2024-03-17T05:51:20;12.63;;;6.05;;
83630;SDS011;73593;52.134;5.426;2024-03-17T05:53:46;15.40;;;6.72;;
83630;SDS011;73593;52.134;5.426;2024-03-17T05:56:12;13.85;;;6.25;;
83630;SDS011;73593;52.134;5.426;2024-03-17T05:58:45;13.38;;;6.65;;
83630;SDS011;73593;52.134;5.426;2024-03-17T06:01:16;14.23;;;5.45;;
83630;SDS011;73593;52.134;5.426;2024-03-17T06:03:47;12.25;;;5.78;;
83630;SDS011;73593;52.134;5.426;2024-03-17T06:06:15;14.38;;;6.03;;
83630;SDS011;73593;52.134;5.426;2024-03-17T06:08:41;14.25;;;6.05;;
83630;SDS011;73593;52.134;5.426;2024-03-17T06:11:10;11.13;;;5.60;;
83630;SDS011;73593;52.134;5.426;2024-03-17T06:13:42;12.57;;;6.13;;
83630;SDS011;73593;52.134;5.426;2024-03-17T06:16:07;11.45;;;5.72;;
83630;SDS011;73593;52.134;5.426;2024-03-17T06:18:34;14.10;;;6.35;;
83630;SDS011;73593;52.134;5.426;2024-03-17T06:20:59;13.90;;;5.72;;
83630;SDS011;73593;52.134;5.426;2024-03-17T06:23:26;11.70;;;5.80;;
83630;SDS011;73593;52.134;5.426;2024-03-17T06:25:54;11.70;;;5.55;;
83630;SDS011;73593;52.134;5.426;2024-03-17T06:28:20;11.82;;;5.30;;
83630;SDS011;73593;52.134;5.426;2024-03-17T06:30:56;12.35;;;5.93;;
83630;SDS011;73593;52.134;5.426;2024-03-17T06:33:32;13.35;;;6.03;;
83630;SDS011;73593;52.134;5.426;2024-03-17T06:36:01;12.75;;;5.47;;
83630;SDS011;73593;52.134;5.426;2024-03-17T06:38:30;12.77;;;6.03;;
83630;SDS011;73593;52.134;5.426;2024-03-17T06:40:58;12.68;;;5.75;;
83630;SDS011;73593;52.134;5.426;2024-03-17T06:43:24;11.60;;;5.53;;
83630;SDS011;73593;52.134;5.426;2024-03-17T06:48:21;13.85;;;6.13;;
83630;SDS011;73593;52.134;5.426;2024-03-17T06:50:47;11.27;;;5.60;;
83630;SDS011;73593;52.134;5.426;2024-03-17T06:53:12;12.15;;;6.45;;
83630;SDS011;73593;52.134;5.426;2024-03-17T06:55:41;11.48;;;5.55;;
83630;SDS011;73593;52.134;5.426;2024-03-17T06:58:07;14.32;;;5.57;;
83630;SDS011;73593;52.134;5.426;2024-03-17T07:00:33;11.95;;;6.55;;
83630;SDS011;73593;52.134;5.426;2024-03-17T07:03:01;10.98;;;5.53;;
83630;SDS011;73593;52.134;5.426;2024-03-17T07:05:30;14.65;;;5.70;;
83630;SDS011;73593;52.134;5.426;2024-03-17T07:07:58;13.50;;;5.88;;
83630;SDS011;73593;52.134;5.426;2024-03-17T07:10:24;14.50;;;5.88;;
83630;SDS011;73593;52.134;5.426;2024-03-17T07:12:52;18.15;;;5.88;;
83630;SDS011;73593;52.134;5.426;2024-03-17T07:15:21;14.95;;;6.28;;
83630;SDS011;73593;52.134;5.426;2024-03-17T07:17:50;14.77;;;6.03;;
83630;SDS011;73593;52.134;5.426;2024-03-17T07:20:16;11.27;;;5.97;;
83630;SDS011;73593;52.134;5.426;2024-03-17T07:22:42;12.00;;;5.43;;
83630;SDS011;73593;52.134;5.426;2024-03-17T07:27:38;12.02;;;5.05;;
83630;SDS011;73593;52.134;5.426;2024-03-17T07:32:34;11.70;;;5.70;;
83630;SDS011;73593;52.134;5.426;2024-03-17T07:35:00;11.18;;;5.40;;
83630;SDS011;73593;52.134;5.426;2024-03-17T07:37:27;14.13;;;6.30;;
83630;SDS011;73593;52.134;5.426;2024-03-17T07:39:52;11.43;;;5.45;;
83630;SDS011;73593;52.134;5.426;2024-03-17T07:42:18;11.50;;;5.45;;
83630;SDS011;73593;52.134;5.426;2024-03-17T07:44:44;10.77;;;6.45;;
83630;SDS011;73593;52.134;5.426;2024-03-17T07:47:12;12.90;;;5.53;;
83630;SDS011;73593;52.134;5.426;2024-03-17T07:49:41;10.05;;;4.82;;
83630;SDS011;73593;52.134;5.426;2024-03-17T07:52:11;10.35;;;5.35;;
83630;SDS011;73593;52.134;5.426;2024-03-17T07:54:37;11.48;;;5.35;;
83630;SDS011;73593;52.134;5.426;2024-03-17T07:57:05;9.75;;;5.20;;
83630;SDS011;73593;52.134;5.426;2024-03-17T07:59:34;9.80;;;5.40;;
83630;SDS011;73593;52.134;5.426;2024-03-17T08:02:02;12.40;;;5.80;;
83630;SDS011;73593;52.134;5.426;2024-03-17T08:04:28;9.55;;;4.75;;
83630;SDS011;73593;52.134;5.426;2024-03-17T08:06:56;11.95;;;4.75;;
83630;SDS011;73593;52.134;5.426;2024-03-17T08:09:22;13.75;;;5.53;;
83630;SDS011;73593;52.134;5.426;2024-03-17T08:14:15;14.20;;;5.28;;
83630;SDS011;73593;52.134;5.426;2024-03-17T08:16:41;10.90;;;6.28;;
83630;SDS011;73593;52.134;5.426;2024-03-17T08:21:34;9.48;;;4.80;;
83630;SDS011;73593;52.134;5.426;2024-03-17T08:24:02;9.57;;;5.05;;
83630;SDS011;73593;52.134;5.426;2024-03-17T08:26:31;10.00;;;4.70;;
83630;SDS011;73593;52.134;5.426;2024-03-17T08:28:56;13.30;;;5.57;;
83630;SDS011;73593;52.134;5.426;2024-03-17T08:31:23;11.23;;;4.82;;
83630;SDS011;73593;52.134;5.426;2024-03-17T08:33:48;11.55;;;5.57;;
83630;SDS011;73593;52.134;5.426;2024-03-17T08:36:16;9.02;;;4.63;;
83630;SDS011;73593;52.134;5.426;2024-03-17T08:41:10;9.63;;;4.82;;
83630;SDS011;73593;52.134;5.426;2024-03-17T08:43:36;10.77;;;5.45;;
83630;SDS011;73593;52.134;5.426;2024-03-17T08:46:03;10.80;;;5.47;;
83630;SDS011;73593;52.134;5.426;2024-03-17T08:51:25;12.13;;;5.53;;
83630;SDS011;73593;52.134;5.426;2024-03-17T08:53:54;8.93;;;4.55;;
83630;SDS011;73593;52.134;5.426;2024-03-17T08:56:20;8.80;;;5.07;;
83630;SDS011;73593;52.134;5.426;2024-03-17T08:58:51;12.00;;;5.40;;
83630;SDS011;73593;52.134;5.426;2024-03-17T09:01:21;10.43;;;4.80;;
83630;SDS011;73593;52.134;5.426;2024-03-17T09:03:49;11.48;;;4.97;;
83630;SDS011;73593;52.134;5.426;2024-03-17T09:06:20;10.00;;;5.45;;
83630;SDS011;73593;52.134;5.426;2024-03-17T09:08:50;9.40;;;5.15;;
83630;SDS011;73593;52.134;5.426;2024-03-17T09:11:17;12.40;;;4.85;;
83630;SDS011;73593;52.134;5.426;2024-03-17T09:13:50;10.23;;;5.15;;
83630;SDS011;73593;52.134;5.426;2024-03-17T09:16:16;11.75;;;4.85;;
83630;SDS011;73593;52.134;5.426;2024-03-17T09:18:44;8.93;;;5.05;;
83630;SDS011;73593;52.134;5.426;2024-03-17T09:21:12;11.93;;;5.07;;
83630;SDS011;73593;52.134;5.426;2024-03-17T09:26:10;11.05;;;4.93;;
83630;SDS011;73593;52.134;5.426;2024-03-17T09:28:41;12.93;;;5.85;;
83630;SDS011;73593;52.134;5.426;2024-03-17T09:31:09;11.07;;;4.85;;
83630;SDS011;73593;52.134;5.426;2024-03-17T09:33:36;11.38;;;5.22;;
83630;SDS011;73593;52.134;5.426;2024-03-17T09:36:04;10.02;;;4.88;;
83630;SDS011;73593;52.134;5.426;2024-03-17T09:38:34;10.90;;;4.53;;
83630;SDS011;73593;52.134;5.426;2024-03-17T09:41:01;10.15;;;4.75;;
83630;SDS011;73593;52.134;5.426;2024-03-17T09:43:28;12.50;;;4.70;;
83630;SDS011;73593;52.134;5.426;2024-03-17T09:45:58;11.10;;;5.47;;
83630;SDS011;73593;52.134;5.426;2024-03-17T09:48:24;10.13;;;4.78;;
83630;SDS011;73593;52.134;5.426;2024-03-17T09:50:56;12.38;;;5.13;;
83630;SDS011;73593;52.134;5.426;2024-03-17T09:55:57;11.43;;;4.60;;
83630;SDS011;73593;52.134;5.426;2024-03-17T09:58:24;9.10;;;4.53;;
83630;SDS011;73593;52.134;5.426;2024-03-17T10:00:50;10.15;;;5.07;;
83630;SDS011;73593;52.134;5.426;2024-03-17T10:06:17;8.73;;;4.60;;
83630;SDS011;73593;52.134;5.426;2024-03-17T10:11:31;13.70;;;5.18;;
83630;SDS011;73593;52.134;5.426;2024-03-17T10:16:29;8.35;;;4.28;;
83630;SDS011;73593;52.134;5.426;2024-03-17T10:19:06;10.52;;;5.35;;
83630;SDS011;73593;52.134;5.426;2024-03-17T10:21:38;10.73;;;4.65;;
83630;SDS011;73593;52.134;5.426;2024-03-17T10:24:20;9.88;;;4.30;;
83630;SDS011;73593;52.134;5.426;2024-03-17T10:26:56;10.85;;;4.80;;
83630;SDS011;73593;52.134;5.426;2024-03-17T10:31:54;12.98;;;5.03;;
83630;SDS011;73593;52.134;5.426;2024-03-17T10:34:21;10.43;;;4.90;;
83630;SDS011;73593;52.134;5.426;2024-03-17T10:36:50;10.93;;;5.25;;
83630;SDS011;73593;52.134;5.426;2024-03-17T10:39:24;9.25;;;4.65;;
83630;SDS011;73593;52.134;5.426;2024-03-17T10:41:57;10.93;;;4.80;;
83630;SDS011;73593;52.134;5.426;2024-03-17T10:44:31;11.52;;;5.20;;
83630;SDS011;73593;52.134;5.426;2024-03-17T10:46:58;10.50;;;4.63;;
83630;SDS011;73593;52.134;5.426;2024-03-17T10:49:30;10.15;;;4.35;;
83630;SDS011;73593;52.134;5.426;2024-03-17T10:52:01;7.88;;;4.50;;
83630;SDS011;73593;52.134;5.426;2024-03-17T10:54:30;12.45;;;5.03;;
83630;SDS011;73593;52.134;5.426;2024-03-17T10:59:40;9.32;;;4.50;;
83630;SDS011;73593;52.134;5.426;2024-03-17T11:02:20;8.70;;;4.38;;
83630;SDS011;73593;52.134;5.426;2024-03-17T11:04:50;12.20;;;4.82;;
83630;SDS011;73593;52.134;5.426;2024-03-17T11:07:19;10.80;;;4.72;;
83630;SDS011;73593;52.134;5.426;2024-03-17T11:09:48;12.13;;;4.63;;
83630;SDS011;73593;52.134;5.426;2024-03-17T11:20:37;8.20;;;4.07;;
83630;SDS011;73593;52.134;5.426;2024-03-17T11:23:07;11.25;;;4.55;;
83630;SDS011;73593;52.134;5.426;2024-03-17T11:25:39;10.45;;;4.50;;
83630;SDS011;73593;52.134;5.426;2024-03-17T11:28:43;10.50;;;4.43;;
83630;SDS011;73593;52.134;5.426;2024-03-17T11:31:31;8.15;;;4.25;;
83630;SDS011;73593;52.134;5.426;2024-03-17T11:34:01;8.98;;;4.53;;
83630;SDS011;73593;52.134;5.426;2024-03-17T11:36:30;10.15;;;4.70;;
83630;SDS011;73593;52.134;5.426;2024-03-17T11:39:02;9.18;;;4.32;;
83630;SDS011;73593;52.134;5.426;2024-03-17T11:41:43;9.55;;;3.90;;
83630;SDS011;73593;52.134;5.426;2024-03-17T11:44:16;11.60;;;4.60;;
83630;SDS011;73593;52.134;5.426;2024-03-17T11:46:43;7.82;;;4.25;;
83630;SDS011;73593;52.134;5.426;2024-03-17T11:49:22;11.27;;;4.53;;
83630;SDS011;73593;52.134;5.426;2024-03-17T11:51:50;9.73;;;4.13;;
83630;SDS011;73593;52.134;5.426;2024-03-17T11:54:26;7.40;;;4.13;;
83630;SDS011;73593;52.134;5.426;2024-03-17T11:56:55;9.70;;;4.53;;
83630;SDS011;73593;52.134;5.426;2024-03-17T11:59:28;8.23;;;4.53;;
83630;SDS011;73593;52.134;5.426;2024-03-17T12:01:54;12.90;;;5.40;;
83630;SDS011;73593;52.134;5.426;2024-03-17T12:04:23;9.38;;;4.25;;
83630;SDS011;73593;52.134;5.426;2024-03-17T12:09:23;8.07;;;3.90;;
83630;SDS011;73593;52.134;5.426;2024-03-17T12:14:27;8.55;;;4.10;;
83630;SDS011;73593;52.134;5.426;2024-03-17T12:16:57;10.95;;;4.63;;
83630;SDS011;73593;52.134;5.426;2024-03-17T12:19:27;9.90;;;4.28;;
83630;SDS011;73593;52.134;5.426;2024-03-17T12:21:56;12.32;;;5.10;;
83630;SDS011;73593;52.134;5.426;2024-03-17T12:24:31;8.93;;;4.70;;
83630;SDS011;73593;52.134;5.426;2024-03-17T12:26:59;8.75;;;4.18;;
83630;SDS011;73593;52.134;5.426;2024-03-17T12:29:30;10.30;;;4.68;;
83630;SDS011;73593;52.134;5.426;2024-03-17T12:32:02;12.02;;;4.50;;
83630;SDS011;73593;52.134;5.426;2024-03-17T12:34:33;11.93;;;4.32;;
83630;SDS011;73593;52.134;5.426;2024-03-17T12:36:59;10.40;;;4.93;;
83630;SDS011;73593;52.134;5.426;2024-03-17T12:39:30;9.23;;;4.53;;
83630;SDS011;73593;52.134;5.426;2024-03-17T12:42:01;9.95;;;4.20;;
83630;SDS011;73593;52.134;5.426;2024-03-17T12:44:28;10.10;;;4.35;;
83630;SDS011;73593;52.134;5.426;2024-03-17T12:46:55;7.55;;;3.97;;
83630;SDS011;73593;52.134;5.426;2024-03-17T12:49:22;8.05;;;3.97;;
83630;SDS011;73593;52.134;5.426;2024-03-17T12:51:50;8.80;;;4.00;;
83630;SDS011;73593;52.134;5.426;2024-03-17T12:54:19;8.05;;;4.10;;
83630;SDS011;73593;52.134;5.426;2024-03-17T12:56:48;8.48;;;3.80;;
83630;SDS011;73593;52.134;5.426;2024-03-17T12:59:39;7.63;;;3.88;;
83630;SDS011;73593;52.134;5.426;2024-03-17T13:02:41;9.50;;;4.60;;
83630;SDS011;73593;52.134;5.426;2024-03-17T13:05:17;8.45;;;4.72;;
83630;SDS011;73593;52.134;5.426;2024-03-17T13:07:46;9.80;;;4.72;;
83630;SDS011;73593;52.134;5.426;2024-03-17T13:10:13;9.13;;;4.22;;
83630;SDS011;73593;52.134;5.426;2024-03-17T13:12:42;10.23;;;4.50;;
83630;SDS011;73593;52.134;5.426;2024-03-17T13:15:12;9.88;;;4.50;;
83630;SDS011;73593;52.134;5.426;2024-03-17T13:17:42;9.82;;;4.43;;
83630;SDS011;73593;52.134;5.426;2024-03-17T13:20:16;7.00;;;3.97;;
83630;SDS011;73593;52.134;5.426;2024-03-17T13:22:45;12.55;;;5.13;;
83630;SDS011;73593;52.134;5.426;2024-03-17T13:27:44;9.93;;;4.28;;
83630;SDS011;73593;52.134;5.426;2024-03-17T13:30:13;10.73;;;4.30;;
83630;SDS011;73593;52.134;5.426;2024-03-17T13:32:43;9.27;;;4.32;;
83630;SDS011;73593;52.134;5.426;2024-03-17T13:35:15;9.68;;;4.60;;
83630;SDS011;73593;52.134;5.426;2024-03-17T13:37:48;9.75;;;4.32;;
83630;SDS011;73593;52.134;5.426;2024-03-17T13:40:16;11.73;;;4.57;;
83630;SDS011;73593;52.134;5.426;2024-03-17T13:42:44;11.00;;;4.43;;
83630;SDS011;73593;52.134;5.426;2024-03-17T13:45:14;10.90;;;4.95;;
83630;SDS011;73593;52.134;5.426;2024-03-17T13:47:40;8.77;;;4.70;;
83630;SDS011;73593;52.134;5.426;2024-03-17T13:50:09;10.75;;;4.80;;
83630;SDS011;73593;52.134;5.426;2024-03-17T13:52:38;10.18;;;4.72;;
83630;SDS011;73593;52.134;5.426;2024-03-17T13:55:18;11.18;;;4.80;;
83630;SDS011;73593;52.134;5.426;2024-03-17T13:57:46;11.10;;;4.47;;
83630;SDS011;73593;52.134;5.426;2024-03-17T14:00:15;9.38;;;4.50;;
83630;SDS011;73593;52.134;5.426;2024-03-17T14:02:48;9.10;;;4.78;;
83630;SDS011;73593;52.134;5.426;2024-03-17T14:05:18;8.75;;;4.60;;
83630;SDS011;73593;52.134;5.426;2024-03-17T14:07:45;9.45;;;4.35;;
83630;SDS011;73593;52.134;5.426;2024-03-17T14:10:12;8.75;;;4.45;;
83630;SDS011;73593;52.134;5.426;2024-03-17T14:12:42;10.65;;;4.60;;
83630;SDS011;73593;52.134;5.426;2024-03-17T14:15:08;12.27;;;4.78;;
83630;SDS011;73593;52.134;5.426;2024-03-17T14:17:38;8.30;;;4.13;;
83630;SDS011;73593;52.134;5.426;2024-03-17T14:20:05;9.50;;;4.13;;
83630;SDS011;73593;52.134;5.426;2024-03-17T14:22:35;9.38;;;4.72;;
83630;SDS011;73593;52.134;5.426;2024-03-17T14:25:03;8.38;;;4.30;;
83630;SDS011;73593;52.134;5.426;2024-03-17T14:27:32;9.48;;;4.78;;
83630;SDS011;73593;52.134;5.426;2024-03-17T14:32:25;10.63;;;4.40;;
83630;SDS011;73593;52.134;5.426;2024-03-17T14:34:56;11.25;;;4.75;;
83630;SDS011;73593;52.134;5.426;2024-03-17T14:37:22;9.73;;;4.93;;
83630;SDS011;73593;52.134;5.426;2024-03-17T14:39:53;8.48;;;4.28;;
83630;SDS011;73593;52.134;5.426;2024-03-17T14:42:19;9.23;;;4.45;;
83630;SDS011;73593;52.134;5.426;2024-03-17T14:44:45;9.05;;;4.63;;
83630;SDS011;73593;52.134;5.426;2024-03-17T14:47:15;10.23;;;5.05;;
83630;SDS011;73593;52.134;5.426;2024-03-17T14:49:43;8.65;;;4.65;;
83630;SDS011;73593;52.134;5.426;2024-03-17T14:52:11;9.35;;;4.65;;
83630;SDS011;73593;52.134;5.426;2024-03-17T14:54:44;8.77;;;4.45;;
83630;SDS011;73593;52.134;5.426;2024-03-17T14:57:10;8.88;;;4.60;;
83630;SDS011;73593;52.134;5.426;2024-03-17T14:59:36;12.82;;;5.53;;
83630;SDS011;73593;52.134;5.426;2024-03-17T15:02:01;8.55;;;4.55;;
83630;SDS011;73593;52.134;5.426;2024-03-17T15:04:31;8.70;;;4.28;;
83630;SDS011;73593;52.134;5.426;2024-03-17T15:06:59;7.93;;;3.90;;
83630;SDS011;73593;52.134;5.426;2024-03-17T15:09:27;7.38;;;3.75;;
83630;SDS011;73593;52.134;5.426;2024-03-17T15:11:53;9.52;;;4.55;;
83630;SDS011;73593;52.134;5.426;2024-03-17T15:14:21;11.57;;;4.45;;
83630;SDS011;73593;52.134;5.426;2024-03-17T15:16:47;10.45;;;4.30;;
83630;SDS011;73593;52.134;5.426;2024-03-17T15:19:13;11.48;;;4.32;;
83630;SDS011;73593;52.134;5.426;2024-03-17T15:21:41;8.55;;;3.85;;
83630;SDS011;73593;52.134;5.426;2024-03-17T15:24:11;8.10;;;3.88;;
83630;SDS011;73593;52.134;5.426;2024-03-17T15:26:38;8.25;;;4.18;;
83630;SDS011;73593;52.134;5.426;2024-03-17T15:29:06;10.35;;;4.40;;
83630;SDS011;73593;52.134;5.426;2024-03-17T15:31:32;9.55;;;4.25;;
83630;SDS011;73593;52.134;5.426;2024-03-17T15:34:00;9.25;;;4.03;;
83630;SDS011;73593;52.134;5.426;2024-03-17T15:36:28;9.88;;;4.10;;
83630;SDS011;73593;52.134;5.426;2024-03-17T15:38:56;8.32;;;3.88;;
83630;SDS011;73593;52.134;5.426;2024-03-17T15:41:25;13.68;;;4.57;;
83630;SDS011;73593;52.134;5.426;2024-03-17T15:43:51;8.57;;;4.13;;
83630;SDS011;73593;52.134;5.426;2024-03-17T15:46:18;10.00;;;4.15;;
83630;SDS011;73593;52.134;5.426;2024-03-17T15:48:48;8.57;;;4.15;;
83630;SDS011;73593;52.134;5.426;2024-03-17T15:51:14;13.35;;;4.40;;
83630;SDS011;73593;52.134;5.426;2024-03-17T15:53:44;7.80;;;3.90;;
83630;SDS011;73593;52.134;5.426;2024-03-17T15:56:10;8.13;;;4.07;;
83630;SDS011;73593;52.134;5.426;2024-03-17T15:58:38;9.18;;;3.97;;
83630;SDS011;73593;52.134;5.426;2024-03-17T16:01:07;9.48;;;3.97;;
83630;SDS011;73593;52.134;5.426;2024-03-17T16:03:38;10.13;;;4.32;;
83630;SDS011;73593;52.134;5.426;2024-03-17T16:06:07;8.95;;;4.20;;